sensor_id;sensor_type;location;lat;lon;timestamp;P1;durP1;ratioP1;P2;durP2;ratioP2
842;SDS011;407;48.884;9.126;2022-10-26T00:00:37;17.13;;;4.70;;
842;SDS011;407;48.884;9.126;2022-10-26T00:03:02;8.40;;;4.13;;
842;SDS011;407;48.884;9.126;2022-10-26T00:05:31;9.23;;;4.50;;
842;SDS011;407;48.884;9.126;2022-10-26T00:07:58;9.10;;;4.30;;
842;SDS011;407;48.884;9.126;2022-10-26T00:10:24;14.02;;;4.30;;
842;SDS011;407;48.884;9.126;2022-10-26T00:12:50;9.07;;;4.03;;
842;SDS011;407;48.884;9.126;2022-10-26T00:15:17;9.35;;;4.20;;
842;SDS011;407;48.884;9.126;2022-10-26T00:17:43;12.05;;;4.40;;
842;SDS011;407;48.884;9.126;2022-10-26T00:20:09;10.15;;;4.18;;
842;SDS011;407;48.884;9.126;2022-10-26T00:22:35;9.50;;;4.03;;
842;SDS011;407;48.884;9.126;2022-10-26T00:25:01;9.67;;;4.40;;
842;SDS011;407;48.884;9.126;2022-10-26T00:27:26;11.02;;;4.70;;
842;SDS011;407;48.884;9.126;2022-10-26T00:29:52;9.67;;;4.40;;
842;SDS011;407;48.884;9.126;2022-10-26T00:32:18;18.40;;;4.77;;
842;SDS011;407;48.884;9.126;2022-10-26T00:34:43;11.68;;;4.60;;
842;SDS011;407;48.884;9.126;2022-10-26T00:37:09;10.20;;;4.00;;
842;SDS011;407;48.884;9.126;2022-10-26T00:39:34;9.00;;;3.90;;
842;SDS011;407;48.884;9.126;2022-10-26T00:42:00;7.72;;;3.30;;
842;SDS011;407;48.884;9.126;2022-10-26T00:47:12;10.07;;;3.72;;
842;SDS011;407;48.884;9.126;2022-10-26T00:49:41;9.10;;;3.70;;
842;SDS011;407;48.884;9.126;2022-10-26T00:52:10;10.75;;;3.90;;
842;SDS011;407;48.884;9.126;2022-10-26T00:54:37;11.57;;;4.32;;
842;SDS011;407;48.884;9.126;2022-10-26T00:57:02;8.53;;;3.80;;
842;SDS011;407;48.884;9.126;2022-10-26T00:59:28;8.50;;;4.03;;
842;SDS011;407;48.884;9.126;2022-10-26T01:01:54;9.20;;;3.55;;
842;SDS011;407;48.884;9.126;2022-10-26T01:04:20;9.00;;;3.87;;
842;SDS011;407;48.884;9.126;2022-10-26T01:06:46;8.50;;;3.70;;
842;SDS011;407;48.884;9.126;2022-10-26T01:09:13;8.50;;;3.55;;
842;SDS011;407;48.884;9.126;2022-10-26T01:11:40;11.60;;;4.50;;
842;SDS011;407;48.884;9.126;2022-10-26T01:14:07;10.85;;;3.72;;
842;SDS011;407;48.884;9.126;2022-10-26T01:22:05;8.77;;;3.70;;
842;SDS011;407;48.884;9.126;2022-10-26T01:27:42;10.50;;;4.00;;
842;SDS011;407;48.884;9.126;2022-10-26T01:35:57;11.85;;;3.45;;
842;SDS011;407;48.884;9.126;2022-10-26T01:38:46;10.10;;;3.50;;
842;SDS011;407;48.884;9.126;2022-10-26T01:41:51;10.18;;;3.72;;
842;SDS011;407;48.884;9.126;2022-10-26T01:44:39;10.03;;;3.70;;
842;SDS011;407;48.884;9.126;2022-10-26T01:47:09;8.50;;;3.50;;
842;SDS011;407;48.884;9.126;2022-10-26T01:49:41;10.15;;;3.20;;
842;SDS011;407;48.884;9.126;2022-10-26T01:52:12;11.88;;;3.80;;
842;SDS011;407;48.884;9.126;2022-10-26T01:54:37;8.20;;;3.70;;
842;SDS011;407;48.884;9.126;2022-10-26T01:57:04;9.05;;;4.35;;
842;SDS011;407;48.884;9.126;2022-10-26T02:02:35;13.00;;;4.15;;
842;SDS011;407;48.884;9.126;2022-10-26T02:18:35;10.15;;;3.65;;
842;SDS011;407;48.884;9.126;2022-10-26T02:21:13;14.07;;;4.50;;
842;SDS011;407;48.884;9.126;2022-10-26T02:23:44;10.27;;;4.28;;
842;SDS011;407;48.884;9.126;2022-10-26T02:26:12;12.65;;;4.63;;
842;SDS011;407;48.884;9.126;2022-10-26T02:28:42;9.50;;;4.20;;
842;SDS011;407;48.884;9.126;2022-10-26T02:31:10;10.30;;;4.20;;
842;SDS011;407;48.884;9.126;2022-10-26T02:33:40;12.00;;;4.50;;
842;SDS011;407;48.884;9.126;2022-10-26T02:36:10;9.83;;;3.90;;
842;SDS011;407;48.884;9.126;2022-10-26T02:38:38;9.13;;;3.60;;
842;SDS011;407;48.884;9.126;2022-10-26T02:41:05;9.30;;;4.22;;
842;SDS011;407;48.884;9.126;2022-10-26T02:43:35;12.55;;;4.30;;
842;SDS011;407;48.884;9.126;2022-10-26T02:46:07;8.13;;;3.93;;
842;SDS011;407;48.884;9.126;2022-10-26T02:48:37;8.70;;;3.55;;
842;SDS011;407;48.884;9.126;2022-10-26T02:51:10;14.30;;;4.27;;
842;SDS011;407;48.884;9.126;2022-10-26T02:53:50;9.77;;;3.60;;
842;SDS011;407;48.884;9.126;2022-10-26T02:56:27;11.00;;;4.38;;
842;SDS011;407;48.884;9.126;2022-10-26T02:58:58;9.38;;;4.03;;
842;SDS011;407;48.884;9.126;2022-10-26T03:01:28;9.55;;;3.90;;
842;SDS011;407;48.884;9.126;2022-10-26T03:03:57;11.65;;;3.92;;
842;SDS011;407;48.884;9.126;2022-10-26T03:06:24;9.68;;;4.03;;
842;SDS011;407;48.884;9.126;2022-10-26T03:08:50;10.65;;;4.00;;
842;SDS011;407;48.884;9.126;2022-10-26T03:11:16;10.43;;;3.87;;
842;SDS011;407;48.884;9.126;2022-10-26T03:13:42;11.15;;;4.35;;
842;SDS011;407;48.884;9.126;2022-10-26T03:16:14;9.95;;;4.40;;
842;SDS011;407;48.884;9.126;2022-10-26T03:18:39;9.48;;;4.28;;
842;SDS011;407;48.884;9.126;2022-10-26T03:21:05;13.43;;;4.80;;
842;SDS011;407;48.884;9.126;2022-10-26T03:23:30;11.90;;;4.53;;
842;SDS011;407;48.884;9.126;2022-10-26T03:25:57;11.17;;;4.10;;
842;SDS011;407;48.884;9.126;2022-10-26T03:28:23;11.50;;;3.75;;
842;SDS011;407;48.884;9.126;2022-10-26T03:30:49;9.40;;;4.57;;
842;SDS011;407;48.884;9.126;2022-10-26T03:33:15;10.75;;;4.40;;
842;SDS011;407;48.884;9.126;2022-10-26T03:35:40;8.97;;;4.33;;
842;SDS011;407;48.884;9.126;2022-10-26T03:38:06;10.40;;;4.40;;
842;SDS011;407;48.884;9.126;2022-10-26T03:40:31;10.02;;;4.43;;
842;SDS011;407;48.884;9.126;2022-10-26T03:42:57;10.50;;;4.88;;
842;SDS011;407;48.884;9.126;2022-10-26T03:45:23;13.77;;;4.20;;
842;SDS011;407;48.884;9.126;2022-10-26T03:47:48;8.90;;;4.03;;
842;SDS011;407;48.884;9.126;2022-10-26T03:50:15;9.75;;;4.40;;
842;SDS011;407;48.884;9.126;2022-10-26T03:52:43;9.85;;;4.68;;
842;SDS011;407;48.884;9.126;2022-10-26T03:55:10;10.40;;;4.60;;
842;SDS011;407;48.884;9.126;2022-10-26T03:57:44;10.50;;;4.30;;
842;SDS011;407;48.884;9.126;2022-10-26T04:00:11;10.25;;;4.57;;
842;SDS011;407;48.884;9.126;2022-10-26T04:02:41;10.65;;;4.50;;
842;SDS011;407;48.884;9.126;2022-10-26T04:05:10;9.00;;;3.80;;
842;SDS011;407;48.884;9.126;2022-10-26T04:07:36;10.10;;;3.80;;
842;SDS011;407;48.884;9.126;2022-10-26T04:10:02;9.47;;;4.40;;
842;SDS011;407;48.884;9.126;2022-10-26T04:12:29;11.60;;;4.00;;
842;SDS011;407;48.884;9.126;2022-10-26T04:14:54;10.55;;;4.47;;
842;SDS011;407;48.884;9.126;2022-10-26T04:17:22;11.20;;;4.47;;
842;SDS011;407;48.884;9.126;2022-10-26T04:19:48;8.20;;;4.05;;
842;SDS011;407;48.884;9.126;2022-10-26T04:22:14;10.63;;;3.87;;
842;SDS011;407;48.884;9.126;2022-10-26T04:24:40;10.38;;;4.43;;
842;SDS011;407;48.884;9.126;2022-10-26T04:27:05;8.00;;;3.90;;
842;SDS011;407;48.884;9.126;2022-10-26T04:29:31;9.90;;;4.20;;
842;SDS011;407;48.884;9.126;2022-10-26T04:31:56;10.52;;;4.50;;
842;SDS011;407;48.884;9.126;2022-10-26T04:34:22;10.15;;;4.55;;
842;SDS011;407;48.884;9.126;2022-10-26T04:36:48;11.10;;;4.77;;
842;SDS011;407;48.884;9.126;2022-10-26T04:39:13;11.32;;;4.10;;
842;SDS011;407;48.884;9.126;2022-10-26T04:41:39;11.18;;;4.10;;
842;SDS011;407;48.884;9.126;2022-10-26T04:44:04;9.30;;;4.90;;
842;SDS011;407;48.884;9.126;2022-10-26T04:46:30;13.93;;;4.50;;
842;SDS011;407;48.884;9.126;2022-10-26T04:48:56;13.55;;;4.10;;
842;SDS011;407;48.884;9.126;2022-10-26T04:51:21;10.02;;;4.05;;
842;SDS011;407;48.884;9.126;2022-10-26T04:53:47;11.63;;;4.50;;
842;SDS011;407;48.884;9.126;2022-10-26T04:56:12;11.27;;;4.40;;
842;SDS011;407;48.884;9.126;2022-10-26T04:58:38;13.48;;;4.22;;
842;SDS011;407;48.884;9.126;2022-10-26T05:01:03;11.53;;;4.07;;
842;SDS011;407;48.884;9.126;2022-10-26T05:03:29;8.70;;;4.17;;
842;SDS011;407;48.884;9.126;2022-10-26T05:05:57;10.35;;;4.40;;
842;SDS011;407;48.884;9.126;2022-10-26T05:08:23;10.63;;;4.50;;
842;SDS011;407;48.884;9.126;2022-10-26T05:10:49;10.37;;;3.97;;
842;SDS011;407;48.884;9.126;2022-10-26T05:13:15;9.65;;;4.30;;
842;SDS011;407;48.884;9.126;2022-10-26T05:15:41;9.93;;;3.47;;
842;SDS011;407;48.884;9.126;2022-10-26T05:18:06;11.15;;;3.08;;
842;SDS011;407;48.884;9.126;2022-10-26T05:20:33;8.85;;;3.20;;
842;SDS011;407;48.884;9.126;2022-10-26T05:23:01;9.50;;;2.83;;
842;SDS011;407;48.884;9.126;2022-10-26T05:25:29;7.03;;;2.50;;
842;SDS011;407;48.884;9.126;2022-10-26T05:28:00;6.70;;;2.60;;
842;SDS011;407;48.884;9.126;2022-10-26T05:30:27;9.25;;;3.17;;
842;SDS011;407;48.884;9.126;2022-10-26T05:32:54;7.63;;;2.67;;
842;SDS011;407;48.884;9.126;2022-10-26T05:35:20;7.80;;;2.30;;
842;SDS011;407;48.884;9.126;2022-10-26T05:37:46;6.97;;;2.80;;
842;SDS011;407;48.884;9.126;2022-10-26T05:40:11;6.73;;;2.20;;
842;SDS011;407;48.884;9.126;2022-10-26T05:42:37;6.93;;;2.60;;
842;SDS011;407;48.884;9.126;2022-10-26T05:45:02;7.30;;;2.40;;
842;SDS011;407;48.884;9.126;2022-10-26T05:47:28;6.23;;;2.30;;
842;SDS011;407;48.884;9.126;2022-10-26T05:49:54;7.10;;;2.70;;
842;SDS011;407;48.884;9.126;2022-10-26T05:52:19;6.70;;;1.95;;
842;SDS011;407;48.884;9.126;2022-10-26T05:54:45;5.90;;;2.20;;
842;SDS011;407;48.884;9.126;2022-10-26T05:57:11;8.40;;;2.30;;
842;SDS011;407;48.884;9.126;2022-10-26T05:59:37;9.13;;;2.83;;
842;SDS011;407;48.884;9.126;2022-10-26T06:02:18;11.60;;;3.50;;
842;SDS011;407;48.884;9.126;2022-10-26T06:05:03;10.55;;;3.70;;
842;SDS011;407;48.884;9.126;2022-10-26T06:07:29;7.20;;;2.90;;
842;SDS011;407;48.884;9.126;2022-10-26T06:09:55;9.13;;;3.50;;
842;SDS011;407;48.884;9.126;2022-10-26T06:12:21;12.02;;;4.00;;
842;SDS011;407;48.884;9.126;2022-10-26T06:14:47;13.13;;;4.10;;
842;SDS011;407;48.884;9.126;2022-10-26T06:20:25;10.80;;;4.10;;
842;SDS011;407;48.884;9.126;2022-10-26T06:23:25;10.82;;;3.60;;
842;SDS011;407;48.884;9.126;2022-10-26T06:31:55;7.13;;;2.23;;
842;SDS011;407;48.884;9.126;2022-10-26T06:34:22;9.80;;;2.40;;
842;SDS011;407;48.884;9.126;2022-10-26T06:36:53;6.88;;;2.40;;
842;SDS011;407;48.884;9.126;2022-10-26T06:39:21;5.60;;;1.95;;
842;SDS011;407;48.884;9.126;2022-10-26T06:41:48;7.45;;;2.10;;
842;SDS011;407;48.884;9.126;2022-10-26T06:44:18;6.50;;;2.10;;
842;SDS011;407;48.884;9.126;2022-10-26T06:49:38;6.18;;;1.90;;
842;SDS011;407;48.884;9.126;2022-10-26T06:54:59;8.82;;;1.98;;
842;SDS011;407;48.884;9.126;2022-10-26T06:57:31;7.60;;;2.50;;
842;SDS011;407;48.884;9.126;2022-10-26T07:00:01;7.30;;;2.20;;
842;SDS011;407;48.884;9.126;2022-10-26T07:02:27;7.20;;;2.00;;
842;SDS011;407;48.884;9.126;2022-10-26T07:04:53;7.57;;;2.00;;
842;SDS011;407;48.884;9.126;2022-10-26T07:07:19;7.43;;;2.30;;
842;SDS011;407;48.884;9.126;2022-10-26T07:09:46;6.80;;;2.25;;
842;SDS011;407;48.884;9.126;2022-10-26T07:12:12;6.63;;;1.90;;
842;SDS011;407;48.884;9.126;2022-10-26T07:14:38;6.80;;;2.25;;
842;SDS011;407;48.884;9.126;2022-10-26T07:17:04;7.55;;;2.13;;
842;SDS011;407;48.884;9.126;2022-10-26T07:19:30;8.38;;;2.20;;
842;SDS011;407;48.884;9.126;2022-10-26T07:21:56;7.60;;;2.00;;
842;SDS011;407;48.884;9.126;2022-10-26T07:24:25;7.80;;;1.90;;
842;SDS011;407;48.884;9.126;2022-10-26T07:26:55;6.55;;;2.28;;
842;SDS011;407;48.884;9.126;2022-10-26T07:29:22;6.38;;;2.38;;
842;SDS011;407;48.884;9.126;2022-10-26T07:31:49;10.00;;;2.30;;
842;SDS011;407;48.884;9.126;2022-10-26T07:34:15;10.07;;;2.25;;
842;SDS011;407;48.884;9.126;2022-10-26T07:36:40;8.70;;;2.58;;
842;SDS011;407;48.884;9.126;2022-10-26T07:39:06;6.73;;;2.20;;
842;SDS011;407;48.884;9.126;2022-10-26T07:41:32;7.88;;;2.65;;
842;SDS011;407;48.884;9.126;2022-10-26T07:43:58;8.27;;;2.33;;
842;SDS011;407;48.884;9.126;2022-10-26T07:46:24;6.40;;;2.27;;
842;SDS011;407;48.884;9.126;2022-10-26T07:48:50;7.00;;;2.17;;
842;SDS011;407;48.884;9.126;2022-10-26T07:51:16;12.27;;;2.30;;
842;SDS011;407;48.884;9.126;2022-10-26T07:53:42;6.10;;;1.90;;
842;SDS011;407;48.884;9.126;2022-10-26T07:56:09;5.75;;;1.80;;
842;SDS011;407;48.884;9.126;2022-10-26T07:58:34;7.93;;;2.45;;
842;SDS011;407;48.884;9.126;2022-10-26T08:01:07;10.33;;;2.80;;
842;SDS011;407;48.884;9.126;2022-10-26T08:03:34;6.78;;;2.40;;
842;SDS011;407;48.884;9.126;2022-10-26T08:06:00;8.47;;;2.40;;
842;SDS011;407;48.884;9.126;2022-10-26T08:08:28;5.95;;;2.30;;
842;SDS011;407;48.884;9.126;2022-10-26T08:10:53;8.15;;;2.30;;
842;SDS011;407;48.884;9.126;2022-10-26T08:13:19;8.73;;;2.40;;
842;SDS011;407;48.884;9.126;2022-10-26T08:15:45;8.43;;;2.50;;
842;SDS011;407;48.884;9.126;2022-10-26T08:18:11;7.97;;;2.78;;
842;SDS011;407;48.884;9.126;2022-10-26T08:20:37;8.52;;;2.30;;
842;SDS011;407;48.884;9.126;2022-10-26T08:23:03;6.83;;;2.20;;
842;SDS011;407;48.884;9.126;2022-10-26T08:25:30;6.85;;;2.30;;
842;SDS011;407;48.884;9.126;2022-10-26T08:27:59;5.72;;;2.00;;
842;SDS011;407;48.884;9.126;2022-10-26T08:30:29;7.70;;;2.53;;
842;SDS011;407;48.884;9.126;2022-10-26T08:33:05;7.82;;;2.17;;
842;SDS011;407;48.884;9.126;2022-10-26T08:35:32;8.00;;;2.40;;
842;SDS011;407;48.884;9.126;2022-10-26T08:37:58;9.65;;;2.40;;
842;SDS011;407;48.884;9.126;2022-10-26T08:40:25;8.60;;;2.63;;
842;SDS011;407;48.884;9.126;2022-10-26T08:42:59;8.77;;;2.50;;
842;SDS011;407;48.884;9.126;2022-10-26T08:45:36;8.07;;;2.67;;
842;SDS011;407;48.884;9.126;2022-10-26T08:48:06;11.73;;;2.50;;
842;SDS011;407;48.884;9.126;2022-10-26T08:50:42;9.88;;;2.40;;
842;SDS011;407;48.884;9.126;2022-10-26T08:55:59;8.10;;;2.70;;
842;SDS011;407;48.884;9.126;2022-10-26T08:58:40;6.43;;;2.25;;
842;SDS011;407;48.884;9.126;2022-10-26T09:01:14;9.27;;;2.35;;
842;SDS011;407;48.884;9.126;2022-10-26T09:03:40;6.80;;;2.40;;
842;SDS011;407;48.884;9.126;2022-10-26T09:06:08;8.60;;;2.15;;
842;SDS011;407;48.884;9.126;2022-10-26T09:26:13;8.50;;;2.60;;
842;SDS011;407;48.884;9.126;2022-10-26T09:28:43;7.82;;;2.40;;
842;SDS011;407;48.884;9.126;2022-10-26T09:31:12;8.90;;;2.20;;
842;SDS011;407;48.884;9.126;2022-10-26T09:33:40;7.50;;;1.90;;
842;SDS011;407;48.884;9.126;2022-10-26T09:36:08;9.77;;;2.47;;
842;SDS011;407;48.884;9.126;2022-10-26T09:38:50;9.40;;;2.30;;
842;SDS011;407;48.884;9.126;2022-10-26T09:41:42;9.68;;;2.50;;
842;SDS011;407;48.884;9.126;2022-10-26T09:50:01;7.20;;;2.20;;
842;SDS011;407;48.884;9.126;2022-10-26T09:52:52;14.35;;;2.90;;
842;SDS011;407;48.884;9.126;2022-10-26T09:55:17;10.10;;;2.10;;
842;SDS011;407;48.884;9.126;2022-10-26T09:57:45;7.17;;;1.87;;
842;SDS011;407;48.884;9.126;2022-10-26T10:00:14;8.57;;;2.10;;
842;SDS011;407;48.884;9.126;2022-10-26T10:02:42;12.80;;;3.03;;
842;SDS011;407;48.884;9.126;2022-10-26T10:05:22;9.73;;;3.87;;
842;SDS011;407;48.884;9.126;2022-10-26T10:07:49;9.45;;;2.75;;
842;SDS011;407;48.884;9.126;2022-10-26T10:10:16;6.55;;;2.40;;
842;SDS011;407;48.884;9.126;2022-10-26T10:12:42;8.40;;;2.30;;
842;SDS011;407;48.884;9.126;2022-10-26T10:15:18;7.00;;;2.00;;
842;SDS011;407;48.884;9.126;2022-10-26T10:17:49;9.77;;;2.60;;
842;SDS011;407;48.884;9.126;2022-10-26T10:20:20;7.85;;;2.40;;
842;SDS011;407;48.884;9.126;2022-10-26T10:22:51;9.10;;;2.30;;
842;SDS011;407;48.884;9.126;2022-10-26T10:25:25;9.25;;;2.60;;
842;SDS011;407;48.884;9.126;2022-10-26T10:28:21;8.73;;;2.33;;
842;SDS011;407;48.884;9.126;2022-10-26T10:30:53;7.63;;;2.30;;
842;SDS011;407;48.884;9.126;2022-10-26T10:33:21;10.75;;;2.67;;
842;SDS011;407;48.884;9.126;2022-10-26T10:35:48;8.85;;;2.50;;
842;SDS011;407;48.884;9.126;2022-10-26T10:38:16;8.65;;;2.10;;
842;SDS011;407;48.884;9.126;2022-10-26T10:40:52;8.85;;;2.10;;
842;SDS011;407;48.884;9.126;2022-10-26T10:43:22;9.70;;;2.40;;
842;SDS011;407;48.884;9.126;2022-10-26T10:45:50;8.23;;;2.40;;
842;SDS011;407;48.884;9.126;2022-10-26T10:48:18;10.97;;;2.47;;
842;SDS011;407;48.884;9.126;2022-10-26T10:50:53;7.03;;;2.33;;
842;SDS011;407;48.884;9.126;2022-10-26T10:59:06;8.17;;;1.90;;
842;SDS011;407;48.884;9.126;2022-10-26T11:02:28;7.70;;;2.25;;
842;SDS011;407;48.884;9.126;2022-10-26T11:07:30;9.87;;;2.63;;
842;SDS011;407;48.884;9.126;2022-10-26T11:10:03;9.85;;;1.90;;
842;SDS011;407;48.884;9.126;2022-10-26T11:12:33;6.80;;;2.30;;
842;SDS011;407;48.884;9.126;2022-10-26T11:15:13;8.77;;;1.85;;
842;SDS011;407;48.884;9.126;2022-10-26T11:17:49;10.00;;;2.25;;
842;SDS011;407;48.884;9.126;2022-10-26T11:20:41;10.40;;;2.72;;
842;SDS011;407;48.884;9.126;2022-10-26T11:26:13;8.45;;;1.95;;
842;SDS011;407;48.884;9.126;2022-10-26T11:31:38;8.95;;;1.70;;
842;SDS011;407;48.884;9.126;2022-10-26T11:37:02;8.20;;;2.10;;
842;SDS011;407;48.884;9.126;2022-10-26T11:39:41;8.25;;;1.90;;
842;SDS011;407;48.884;9.126;2022-10-26T11:45:01;6.30;;;1.80;;
842;SDS011;407;48.884;9.126;2022-10-26T11:47:42;8.80;;;1.60;;
842;SDS011;407;48.884;9.126;2022-10-26T11:50:20;6.43;;;1.65;;
842;SDS011;407;48.884;9.126;2022-10-26T11:52:52;8.95;;;1.95;;
842;SDS011;407;48.884;9.126;2022-10-26T11:55:32;8.30;;;2.40;;
842;SDS011;407;48.884;9.126;2022-10-26T11:57:58;9.10;;;1.77;;
842;SDS011;407;48.884;9.126;2022-10-26T12:00:24;10.63;;;2.38;;
842;SDS011;407;48.884;9.126;2022-10-26T12:02:57;6.25;;;1.30;;
842;SDS011;407;48.884;9.126;2022-10-26T12:10:49;7.50;;;2.10;;
842;SDS011;407;48.884;9.126;2022-10-26T12:16:09;5.68;;;1.50;;
842;SDS011;407;48.884;9.126;2022-10-26T12:18:49;7.05;;;1.75;;
842;SDS011;407;48.884;9.126;2022-10-26T12:21:23;6.05;;;1.52;;
842;SDS011;407;48.884;9.126;2022-10-26T12:23:55;6.95;;;1.58;;
842;SDS011;407;48.884;9.126;2022-10-26T12:34:01;8.80;;;1.80;;
842;SDS011;407;48.884;9.126;2022-10-26T13:08:51;8.05;;;2.35;;
842;SDS011;407;48.884;9.126;2022-10-26T13:11:35;5.78;;;1.63;;
842;SDS011;407;48.884;9.126;2022-10-26T13:14:07;7.18;;;1.70;;
842;SDS011;407;48.884;9.126;2022-10-26T13:16:46;6.65;;;1.38;;
842;SDS011;407;48.884;9.126;2022-10-26T13:19:31;6.95;;;2.05;;
842;SDS011;407;48.884;9.126;2022-10-26T13:22:11;7.47;;;2.10;;
842;SDS011;407;48.884;9.126;2022-10-26T13:24:42;16.90;;;8.23;;
842;SDS011;407;48.884;9.126;2022-10-26T13:32:32;10.32;;;2.20;;
842;SDS011;407;48.884;9.126;2022-10-26T13:35:00;8.00;;;1.70;;
842;SDS011;407;48.884;9.126;2022-10-26T13:37:28;7.45;;;1.63;;
842;SDS011;407;48.884;9.126;2022-10-26T13:39:56;8.98;;;2.10;;
842;SDS011;407;48.884;9.126;2022-10-26T13:42:25;7.15;;;1.70;;
842;SDS011;407;48.884;9.126;2022-10-26T13:47:51;8.05;;;2.30;;
842;SDS011;407;48.884;9.126;2022-10-26T13:50:23;8.45;;;2.30;;
842;SDS011;407;48.884;9.126;2022-10-26T13:52:53;6.30;;;1.73;;
842;SDS011;407;48.884;9.126;2022-10-26T14:00:29;9.68;;;2.08;;
842;SDS011;407;48.884;9.126;2022-10-26T14:02:55;8.32;;;1.80;;
842;SDS011;407;48.884;9.126;2022-10-26T14:05:21;8.30;;;1.93;;
842;SDS011;407;48.884;9.126;2022-10-26T14:10:35;10.05;;;2.30;;
842;SDS011;407;48.884;9.126;2022-10-26T14:13:06;7.05;;;1.92;;
842;SDS011;407;48.884;9.126;2022-10-26T14:15:33;9.20;;;1.90;;
842;SDS011;407;48.884;9.126;2022-10-26T14:18:00;9.00;;;2.10;;
842;SDS011;407;48.884;9.126;2022-10-26T14:20:28;10.33;;;3.20;;
842;SDS011;407;48.884;9.126;2022-10-26T14:22:55;7.22;;;2.20;;
842;SDS011;407;48.884;9.126;2022-10-26T14:25:23;9.70;;;2.45;;
842;SDS011;407;48.884;9.126;2022-10-26T14:27:53;7.40;;;2.10;;
842;SDS011;407;48.884;9.126;2022-10-26T14:32:47;7.00;;;1.90;;
842;SDS011;407;48.884;9.126;2022-10-26T14:35:13;6.57;;;1.90;;
842;SDS011;407;48.884;9.126;2022-10-26T14:40:20;8.88;;;2.22;;
842;SDS011;407;48.884;9.126;2022-10-26T14:42:57;6.90;;;2.00;;
842;SDS011;407;48.884;9.126;2022-10-26T14:45:27;7.47;;;1.90;;
842;SDS011;407;48.884;9.126;2022-10-26T14:47:59;7.20;;;2.03;;
842;SDS011;407;48.884;9.126;2022-10-26T14:50:26;9.40;;;1.60;;
842;SDS011;407;48.884;9.126;2022-10-26T14:52:56;9.00;;;1.80;;
842;SDS011;407;48.884;9.126;2022-10-26T14:55:50;7.75;;;2.13;;
842;SDS011;407;48.884;9.126;2022-10-26T14:58:21;11.90;;;2.40;;
842;SDS011;407;48.884;9.126;2022-10-26T15:03:44;7.87;;;1.70;;
842;SDS011;407;48.884;9.126;2022-10-26T15:09:00;8.40;;;1.80;;
842;SDS011;407;48.884;9.126;2022-10-26T15:11:29;6.20;;;1.80;;
842;SDS011;407;48.884;9.126;2022-10-26T15:13:56;7.10;;;1.60;;
842;SDS011;407;48.884;9.126;2022-10-26T15:18:51;9.55;;;2.60;;
842;SDS011;407;48.884;9.126;2022-10-26T15:21:38;8.00;;;2.10;;
842;SDS011;407;48.884;9.126;2022-10-26T15:24:19;7.95;;;1.95;;
842;SDS011;407;48.884;9.126;2022-10-26T15:26:51;6.68;;;2.10;;
842;SDS011;407;48.884;9.126;2022-10-26T15:29:37;10.63;;;2.70;;
842;SDS011;407;48.884;9.126;2022-10-26T15:32:24;8.80;;;2.23;;
842;SDS011;407;48.884;9.126;2022-10-26T15:35:30;9.73;;;2.00;;
842;SDS011;407;48.884;9.126;2022-10-26T15:37:49;12.33;;;2.23;;
842;SDS011;407;48.884;9.126;2022-10-26T15:40:16;6.70;;;2.05;;
842;SDS011;407;48.884;9.126;2022-10-26T15:42:42;7.87;;;2.10;;
842;SDS011;407;48.884;9.126;2022-10-26T15:45:23;6.70;;;2.00;;
842;SDS011;407;48.884;9.126;2022-10-26T15:47:52;10.80;;;2.00;;
842;SDS011;407;48.884;9.126;2022-10-26T15:50:22;8.10;;;2.17;;
842;SDS011;407;48.884;9.126;2022-10-26T15:52:54;6.90;;;1.80;;
842;SDS011;407;48.884;9.126;2022-10-26T15:55:24;7.60;;;2.00;;
842;SDS011;407;48.884;9.126;2022-10-26T15:57:49;9.07;;;2.28;;
842;SDS011;407;48.884;9.126;2022-10-26T16:00:15;10.15;;;2.15;;
842;SDS011;407;48.884;9.126;2022-10-26T16:02:42;6.82;;;2.13;;
842;SDS011;407;48.884;9.126;2022-10-26T16:05:09;8.37;;;2.63;;
842;SDS011;407;48.884;9.126;2022-10-26T16:07:36;9.55;;;1.98;;
842;SDS011;407;48.884;9.126;2022-10-26T16:10:03;8.15;;;2.08;;
842;SDS011;407;48.884;9.126;2022-10-26T16:12:29;11.68;;;2.70;;
842;SDS011;407;48.884;9.126;2022-10-26T16:14:55;7.85;;;2.30;;
842;SDS011;407;48.884;9.126;2022-10-26T16:17:20;8.48;;;2.13;;
842;SDS011;407;48.884;9.126;2022-10-26T16:19:46;8.60;;;2.30;;
842;SDS011;407;48.884;9.126;2022-10-26T16:22:11;11.43;;;2.50;;
842;SDS011;407;48.884;9.126;2022-10-26T16:24:37;9.47;;;5.90;;
842;SDS011;407;48.884;9.126;2022-10-26T16:27:03;8.77;;;3.13;;
842;SDS011;407;48.884;9.126;2022-10-26T16:29:28;10.65;;;3.17;;
842;SDS011;407;48.884;9.126;2022-10-26T16:31:54;8.90;;;3.30;;
842;SDS011;407;48.884;9.126;2022-10-26T16:34:20;9.63;;;3.30;;
842;SDS011;407;48.884;9.126;2022-10-26T16:36:45;8.05;;;2.60;;
842;SDS011;407;48.884;9.126;2022-10-26T16:39:11;11.45;;;2.80;;
842;SDS011;407;48.884;9.126;2022-10-26T16:41:37;11.18;;;3.00;;
842;SDS011;407;48.884;9.126;2022-10-26T16:44:02;10.77;;;3.20;;
842;SDS011;407;48.884;9.126;2022-10-26T16:46:28;11.93;;;3.80;;
842;SDS011;407;48.884;9.126;2022-10-26T16:48:54;10.05;;;2.90;;
842;SDS011;407;48.884;9.126;2022-10-26T16:51:20;10.88;;;2.90;;
842;SDS011;407;48.884;9.126;2022-10-26T16:53:49;8.88;;;2.72;;
842;SDS011;407;48.884;9.126;2022-10-26T16:56:18;10.70;;;2.63;;
842;SDS011;407;48.884;9.126;2022-10-26T16:58:45;12.25;;;3.03;;
842;SDS011;407;48.884;9.126;2022-10-26T17:01:10;11.93;;;3.20;;
842;SDS011;407;48.884;9.126;2022-10-26T17:03:37;10.27;;;2.88;;
842;SDS011;407;48.884;9.126;2022-10-26T17:06:04;11.20;;;3.00;;
842;SDS011;407;48.884;9.126;2022-10-26T17:08:31;9.88;;;2.90;;
842;SDS011;407;48.884;9.126;2022-10-26T17:11:02;8.73;;;3.00;;
842;SDS011;407;48.884;9.126;2022-10-26T17:13:33;8.18;;;2.85;;
842;SDS011;407;48.884;9.126;2022-10-26T17:16:07;16.27;;;2.90;;
842;SDS011;407;48.884;9.126;2022-10-26T17:18:43;11.95;;;2.83;;
842;SDS011;407;48.884;9.126;2022-10-26T17:21:11;13.57;;;3.20;;
842;SDS011;407;48.884;9.126;2022-10-26T17:23:38;10.85;;;3.08;;
842;SDS011;407;48.884;9.126;2022-10-26T17:26:05;8.63;;;2.90;;
842;SDS011;407;48.884;9.126;2022-10-26T17:28:33;10.52;;;2.70;;
842;SDS011;407;48.884;9.126;2022-10-26T17:31:06;10.32;;;2.65;;
842;SDS011;407;48.884;9.126;2022-10-26T17:33:35;11.63;;;2.60;;
842;SDS011;407;48.884;9.126;2022-10-26T17:36:02;14.63;;;5.95;;
842;SDS011;407;48.884;9.126;2022-10-26T17:38:30;8.13;;;2.72;;
842;SDS011;407;48.884;9.126;2022-10-26T17:41:03;8.50;;;3.10;;
842;SDS011;407;48.884;9.126;2022-10-26T17:43:32;8.60;;;2.70;;
842;SDS011;407;48.884;9.126;2022-10-26T17:45:58;7.05;;;2.50;;
842;SDS011;407;48.884;9.126;2022-10-26T17:48:28;9.90;;;3.50;;
842;SDS011;407;48.884;9.126;2022-10-26T17:50:59;9.00;;;2.85;;
842;SDS011;407;48.884;9.126;2022-10-26T17:53:26;14.38;;;3.00;;
842;SDS011;407;48.884;9.126;2022-10-26T17:55:58;9.52;;;3.58;;
842;SDS011;407;48.884;9.126;2022-10-26T17:58:44;10.50;;;3.70;;
842;SDS011;407;48.884;9.126;2022-10-26T18:01:15;13.25;;;4.43;;
842;SDS011;407;48.884;9.126;2022-10-26T18:03:41;11.20;;;3.50;;
842;SDS011;407;48.884;9.126;2022-10-26T18:06:06;10.98;;;3.13;;
842;SDS011;407;48.884;9.126;2022-10-26T18:08:33;13.07;;;3.60;;
842;SDS011;407;48.884;9.126;2022-10-26T18:11:00;13.53;;;3.53;;
842;SDS011;407;48.884;9.126;2022-10-26T18:13:26;11.35;;;3.30;;
842;SDS011;407;48.884;9.126;2022-10-26T18:15:55;10.65;;;2.85;;
842;SDS011;407;48.884;9.126;2022-10-26T18:18:26;10.93;;;3.40;;
842;SDS011;407;48.884;9.126;2022-10-26T18:20:51;8.40;;;3.47;;
842;SDS011;407;48.884;9.126;2022-10-26T18:23:23;9.15;;;3.03;;
842;SDS011;407;48.884;9.126;2022-10-26T18:25:57;8.20;;;2.80;;
842;SDS011;407;48.884;9.126;2022-10-26T18:28:24;10.85;;;3.38;;
842;SDS011;407;48.884;9.126;2022-10-26T18:30:50;13.70;;;3.27;;
842;SDS011;407;48.884;9.126;2022-10-26T18:33:15;11.07;;;4.00;;
842;SDS011;407;48.884;9.126;2022-10-26T18:35:41;11.70;;;4.47;;
842;SDS011;407;48.884;9.126;2022-10-26T18:38:06;10.05;;;3.88;;
842;SDS011;407;48.884;9.126;2022-10-26T18:40:32;10.20;;;3.58;;
842;SDS011;407;48.884;9.126;2022-10-26T18:42:58;11.60;;;3.90;;
842;SDS011;407;48.884;9.126;2022-10-26T18:45:23;14.25;;;3.88;;